sensor_id;sensor_type;location;lat;lon;timestamp;temperature;humidity
2539;DHT22;1280;49.760;9.664;2022-12-10T00:01:25;4.60;75.10
2539;DHT22;1280;49.760;9.664;2022-12-10T00:03:53;4.60;75.20
2539;DHT22;1280;49.760;9.664;2022-12-10T00:06:25;4.50;75.20
2539;DHT22;1280;49.760;9.664;2022-12-10T00:08:54;4.50;75.10
2539;DHT22;1280;49.760;9.664;2022-12-10T00:11:24;4.50;75.20
2539;DHT22;1280;49.760;9.664;2022-12-10T00:13:52;4.50;75.30
2539;DHT22;1280;49.760;9.664;2022-12-10T00:16:23;4.60;75.40
2539;DHT22;1280;49.760;9.664;2022-12-10T00:18:52;4.60;75.10
2539;DHT22;1280;49.760;9.664;2022-12-10T00:21:28;4.60;75.10
2539;DHT22;1280;49.760;9.664;2022-12-10T00:23:57;4.60;75.20
2539;DHT22;1280;49.760;9.664;2022-12-10T00:26:29;4.60;75.30
2539;DHT22;1280;49.760;9.664;2022-12-10T00:28:57;4.70;75.40
2539;DHT22;1280;49.760;9.664;2022-12-10T00:31:27;4.70;75.40
2539;DHT22;1280;49.760;9.664;2022-12-10T00:33:56;4.80;75.40
2539;DHT22;1280;49.760;9.664;2022-12-10T00:36:28;4.80;75.20
2539;DHT22;1280;49.760;9.664;2022-12-10T00:38:58;4.80;75.10
2539;DHT22;1280;49.760;9.664;2022-12-10T00:41:28;4.70;75.00
2539;DHT22;1280;49.760;9.664;2022-12-10T00:43:57;4.70;75.10
2539;DHT22;1280;49.760;9.664;2022-12-10T00:46:26;4.70;75.20
2539;DHT22;1280;49.760;9.664;2022-12-10T00:48:54;4.70;75.20
2539;DHT22;1280;49.760;9.664;2022-12-10T00:51:23;4.70;75.20
2539;DHT22;1280;49.760;9.664;2022-12-10T00:53:54;4.80;75.30
2539;DHT22;1280;49.760;9.664;2022-12-10T00:56:25;4.80;75.30
2539;DHT22;1280;49.760;9.664;2022-12-10T00:58:55;4.80;75.30
2539;DHT22;1280;49.760;9.664;2022-12-10T01:01:25;4.80;75.20
2539;DHT22;1280;49.760;9.664;2022-12-10T01:03:55;4.80;75.10
2539;DHT22;1280;49.760;9.664;2022-12-10T01:06:26;4.80;75.10
2539;DHT22;1280;49.760;9.664;2022-12-10T01:08:56;4.90;75.10
2539;DHT22;1280;49.760;9.664;2022-12-10T01:11:28;4.90;75.00
2539;DHT22;1280;49.760;9.664;2022-12-10T01:13:58;4.90;75.10
2539;DHT22;1280;49.760;9.664;2022-12-10T01:16:26;4.90;75.00
2539;DHT22;1280;49.760;9.664;2022-12-10T01:18:55;4.90;75.00
2539;DHT22;1280;49.760;9.664;2022-12-10T01:21:25;4.90;75.00
2539;DHT22;1280;49.760;9.664;2022-12-10T01:23:54;4.80;75.00
2539;DHT22;1280;49.760;9.664;2022-12-10T01:26:24;4.80;75.00
2539;DHT22;1280;49.760;9.664;2022-12-10T01:28:54;4.80;75.00
2539;DHT22;1280;49.760;9.664;2022-12-10T01:31:26;4.80;75.00
2539;DHT22;1280;49.760;9.664;2022-12-10T01:33:55;4.80;75.10
2539;DHT22;1280;49.760;9.664;2022-12-10T01:36:26;4.80;75.10
2539;DHT22;1280;49.760;9.664;2022-12-10T01:38:55;4.80;75.10
2539;DHT22;1280;49.760;9.664;2022-12-10T01:41:25;4.80;75.10
2539;DHT22;1280;49.760;9.664;2022-12-10T01:43:56;4.80;75.00
2539;DHT22;1280;49.760;9.664;2022-12-10T01:46:27;4.70;75.10
2539;DHT22;1280;49.760;9.664;2022-12-10T01:48:56;4.80;75.10
2539;DHT22;1280;49.760;9.664;2022-12-10T01:51:27;4.70;75.00
2539;DHT22;1280;49.760;9.664;2022-12-10T01:53:56;4.70;75.00
2539;DHT22;1280;49.760;9.664;2022-12-10T01:56:24;4.70;74.80
2539;DHT22;1280;49.760;9.664;2022-12-10T01:58:55;4.60;74.80
2539;DHT22;1280;49.760;9.664;2022-12-10T02:01:30;4.50;74.90
2539;DHT22;1280;49.760;9.664;2022-12-10T02:04:09;4.50;75.00
2539;DHT22;1280;49.760;9.664;2022-12-10T02:06:45;4.50;75.10
2539;DHT22;1280;49.760;9.664;2022-12-10T02:09:29;4.50;75.10
2539;DHT22;1280;49.760;9.664;2022-12-10T02:12:07;4.50;75.10
2539;DHT22;1280;49.760;9.664;2022-12-10T02:14:43;4.50;75.10
2539;DHT22;1280;49.760;9.664;2022-12-10T02:17:17;4.50;75.20
2539;DHT22;1280;49.760;9.664;2022-12-10T02:19:58;4.50;75.20
2539;DHT22;1280;49.760;9.664;2022-12-10T02:22:33;4.50;75.30
2539;DHT22;1280;49.760;9.664;2022-12-10T02:25:04;4.50;75.20
2539;DHT22;1280;49.760;9.664;2022-12-10T02:27:40;4.50;75.20
2539;DHT22;1280;49.760;9.664;2022-12-10T02:30:13;4.50;75.30
2539;DHT22;1280;49.760;9.664;2022-12-10T02:32:44;4.50;75.10
2539;DHT22;1280;49.760;9.664;2022-12-10T02:35:16;4.50;75.20
2539;DHT22;1280;49.760;9.664;2022-12-10T02:37:49;4.40;75.20
2539;DHT22;1280;49.760;9.664;2022-12-10T02:40:21;4.40;75.20
2539;DHT22;1280;49.760;9.664;2022-12-10T02:42:53;4.40;75.20
2539;DHT22;1280;49.760;9.664;2022-12-10T02:45:26;4.50;75.30
2539;DHT22;1280;49.760;9.664;2022-12-10T02:47:57;4.50;75.30
2539;DHT22;1280;49.760;9.664;2022-12-10T02:50:33;4.40;75.30
2539;DHT22;1280;49.760;9.664;2022-12-10T02:53:03;4.50;75.30
2539;DHT22;1280;49.760;9.664;2022-12-10T02:55:44;4.50;75.20
2539;DHT22;1280;49.760;9.664;2022-12-10T02:58:22;4.50;75.20
2539;DHT22;1280;49.760;9.664;2022-12-10T03:01:00;4.40;75.20
2539;DHT22;1280;49.760;9.664;2022-12-10T03:03:37;4.40;75.20
2539;DHT22;1280;49.760;9.664;2022-12-10T03:06:12;4.40;75.20
2539;DHT22;1280;49.760;9.664;2022-12-10T03:08:46;4.40;75.30
2539;DHT22;1280;49.760;9.664;2022-12-10T03:11:17;4.40;75.30
2539;DHT22;1280;49.760;9.664;2022-12-10T03:13:52;4.40;75.20
2539;DHT22;1280;49.760;9.664;2022-12-10T03:16:25;4.40;75.20
2539;DHT22;1280;49.760;9.664;2022-12-10T03:18:58;4.40;75.20
2539;DHT22;1280;49.760;9.664;2022-12-10T03:21:29;4.40;75.20
2539;DHT22;1280;49.760;9.664;2022-12-10T03:23:58;4.30;75.10
2539;DHT22;1280;49.760;9.664;2022-12-10T03:26:27;4.30;75.10
2539;DHT22;1280;49.760;9.664;2022-12-10T03:29:01;4.20;75.10
2539;DHT22;1280;49.760;9.664;2022-12-10T03:31:34;4.20;75.20
2539;DHT22;1280;49.760;9.664;2022-12-10T03:34:03;4.20;75.30
2539;DHT22;1280;49.760;9.664;2022-12-10T03:36:32;4.20;75.30
2539;DHT22;1280;49.760;9.664;2022-12-10T03:39:01;4.20;75.30
2539;DHT22;1280;49.760;9.664;2022-12-10T03:41:29;4.20;75.30
2539;DHT22;1280;49.760;9.664;2022-12-10T03:43:59;4.20;75.30
2539;DHT22;1280;49.760;9.664;2022-12-10T03:46:29;4.20;75.30
2539;DHT22;1280;49.760;9.664;2022-12-10T03:49:00;4.20;75.30
2539;DHT22;1280;49.760;9.664;2022-12-10T03:51:28;4.20;75.30
2539;DHT22;1280;49.760;9.664;2022-12-10T03:53:56;4.20;75.40
2539;DHT22;1280;49.760;9.664;2022-12-10T03:56:24;4.20;75.50
2539;DHT22;1280;49.760;9.664;2022-12-10T03:58:52;4.20;75.40
2539;DHT22;1280;49.760;9.664;2022-12-10T04:01:20;4.20;75.40
2539;DHT22;1280;49.760;9.664;2022-12-10T04:03:48;4.20;75.30
2539;DHT22;1280;49.760;9.664;2022-12-10T04:06:18;4.20;75.50
2539;DHT22;1280;49.760;9.664;2022-12-10T04:08:47;4.10;75.20
2539;DHT22;1280;49.760;9.664;2022-12-10T04:11:24;4.00;75.00
2539;DHT22;1280;49.760;9.664;2022-12-10T04:13:52;3.90;75.00
2539;DHT22;1280;49.760;9.664;2022-12-10T04:16:38;3.80;75.00
2539;DHT22;1280;49.760;9.664;2022-12-10T04:19:08;3.70;75.20
2539;DHT22;1280;49.760;9.664;2022-12-10T04:21:38;3.60;75.30
2539;DHT22;1280;49.760;9.664;2022-12-10T04:24:27;3.60;75.40
2539;DHT22;1280;49.760;9.664;2022-12-10T04:27:17;3.60;75.70
2539;DHT22;1280;49.760;9.664;2022-12-10T04:29:46;3.60;75.60
2539;DHT22;1280;49.760;9.664;2022-12-10T04:32:15;3.60;75.70
2539;DHT22;1280;49.760;9.664;2022-12-10T04:34:43;3.60;75.70
2539;DHT22;1280;49.760;9.664;2022-12-10T04:37:13;3.60;75.70
2539;DHT22;1280;49.760;9.664;2022-12-10T04:39:41;3.50;75.80
2539;DHT22;1280;49.760;9.664;2022-12-10T04:42:09;3.50;75.90
2539;DHT22;1280;49.760;9.664;2022-12-10T04:44:37;3.60;76.00
2539;DHT22;1280;49.760;9.664;2022-12-10T04:47:07;3.60;76.00
2539;DHT22;1280;49.760;9.664;2022-12-10T04:49:36;3.60;76.10
2539;DHT22;1280;49.760;9.664;2022-12-10T04:52:05;3.70;76.10
2539;DHT22;1280;49.760;9.664;2022-12-10T04:54:35;3.70;76.10
2539;DHT22;1280;49.760;9.664;2022-12-10T04:57:05;3.70;76.10
2539;DHT22;1280;49.760;9.664;2022-12-10T04:59:35;3.80;76.00
2539;DHT22;1280;49.760;9.664;2022-12-10T05:02:03;3.80;76.00
2539;DHT22;1280;49.760;9.664;2022-12-10T05:04:31;3.80;75.90
2539;DHT22;1280;49.760;9.664;2022-12-10T05:06:59;3.80;75.90
2539;DHT22;1280;49.760;9.664;2022-12-10T05:09:27;3.80;75.90
2539;DHT22;1280;49.760;9.664;2022-12-10T05:11:57;3.80;75.90
2539;DHT22;1280;49.760;9.664;2022-12-10T05:14:25;3.80;75.90
2539;DHT22;1280;49.760;9.664;2022-12-10T05:16:53;3.80;75.90
2539;DHT22;1280;49.760;9.664;2022-12-10T05:19:21;3.80;75.80
2539;DHT22;1280;49.760;9.664;2022-12-10T05:21:50;3.70;75.70
2539;DHT22;1280;49.760;9.664;2022-12-10T05:24:35;3.70;75.70
2539;DHT22;1280;49.760;9.664;2022-12-10T05:27:05;3.60;75.60
2539;DHT22;1280;49.760;9.664;2022-12-10T05:29:33;3.60;75.60
2539;DHT22;1280;49.760;9.664;2022-12-10T05:32:02;3.50;75.60
2539;DHT22;1280;49.760;9.664;2022-12-10T05:34:30;3.50;75.60
2539;DHT22;1280;49.760;9.664;2022-12-10T05:36:58;3.50;75.80
2539;DHT22;1280;49.760;9.664;2022-12-10T05:39:27;3.50;75.90
2539;DHT22;1280;49.760;9.664;2022-12-10T05:41:55;3.50;76.00
2539;DHT22;1280;49.760;9.664;2022-12-10T05:44:24;3.50;76.00
2539;DHT22;1280;49.760;9.664;2022-12-10T05:46:52;3.50;75.90
2539;DHT22;1280;49.760;9.664;2022-12-10T05:49:20;3.50;75.90
2539;DHT22;1280;49.760;9.664;2022-12-10T05:51:48;3.50;75.80
2539;DHT22;1280;49.760;9.664;2022-12-10T05:54:16;3.50;75.80
2539;DHT22;1280;49.760;9.664;2022-12-10T05:56:44;3.50;75.80
2539;DHT22;1280;49.760;9.664;2022-12-10T05:59:12;3.50;75.80
2539;DHT22;1280;49.760;9.664;2022-12-10T06:01:44;3.50;75.80
2539;DHT22;1280;49.760;9.664;2022-12-10T06:04:12;3.50;75.80
2539;DHT22;1280;49.760;9.664;2022-12-10T06:06:41;3.40;75.80
2539;DHT22;1280;49.760;9.664;2022-12-10T06:09:12;3.40;75.80
2539;DHT22;1280;49.760;9.664;2022-12-10T06:11:41;3.40;75.80
2539;DHT22;1280;49.760;9.664;2022-12-10T06:14:10;3.40;75.80
2539;DHT22;1280;49.760;9.664;2022-12-10T06:16:39;3.40;75.80
2539;DHT22;1280;49.760;9.664;2022-12-10T06:19:09;3.50;75.90
2539;DHT22;1280;49.760;9.664;2022-12-10T06:21:37;3.50;75.90
2539;DHT22;1280;49.760;9.664;2022-12-10T06:24:06;3.50;75.90
2539;DHT22;1280;49.760;9.664;2022-12-10T06:26:34;3.50;75.90
2539;DHT22;1280;49.760;9.664;2022-12-10T06:29:02;3.50;75.80
2539;DHT22;1280;49.760;9.664;2022-12-10T06:31:31;3.50;75.80
2539;DHT22;1280;49.760;9.664;2022-12-10T06:33:59;3.50;75.80
2539;DHT22;1280;49.760;9.664;2022-12-10T06:36:28;3.50;75.90
2539;DHT22;1280;49.760;9.664;2022-12-10T06:38:57;3.50;75.90
2539;DHT22;1280;49.760;9.664;2022-12-10T06:41:24;3.50;75.90
2539;DHT22;1280;49.760;9.664;2022-12-10T06:43:52;3.50;75.90
2539;DHT22;1280;49.760;9.664;2022-12-10T06:46:26;3.50;75.90
2539;DHT22;1280;49.760;9.664;2022-12-10T06:48:55;3.50;75.80
2539;DHT22;1280;49.760;9.664;2022-12-10T06:51:24;3.50;75.90
2539;DHT22;1280;49.760;9.664;2022-12-10T06:53:54;3.50;75.90
2539;DHT22;1280;49.760;9.664;2022-12-10T06:56:22;3.50;75.80
2539;DHT22;1280;49.760;9.664;2022-12-10T06:58:52;3.50;75.80
2539;DHT22;1280;49.760;9.664;2022-12-10T07:01:22;3.40;75.80
2539;DHT22;1280;49.760;9.664;2022-12-10T07:03:55;3.40;75.90
2539;DHT22;1280;49.760;9.664;2022-12-10T07:06:23;3.40;75.90
2539;DHT22;1280;49.760;9.664;2022-12-10T07:08:51;3.40;75.90
2539;DHT22;1280;49.760;9.664;2022-12-10T07:11:22;3.40;75.90
2539;DHT22;1280;49.760;9.664;2022-12-10T07:13:51;3.40;76.00
2539;DHT22;1280;49.760;9.664;2022-12-10T07:16:20;3.40;76.00
2539;DHT22;1280;49.760;9.664;2022-12-10T07:18:49;3.40;76.00
2539;DHT22;1280;49.760;9.664;2022-12-10T07:21:20;3.40;76.10
2539;DHT22;1280;49.760;9.664;2022-12-10T07:23:49;3.40;76.10
2539;DHT22;1280;49.760;9.664;2022-12-10T07:26:17;3.40;76.10
2539;DHT22;1280;49.760;9.664;2022-12-10T07:28:47;3.40;76.10
2539;DHT22;1280;49.760;9.664;2022-12-10T07:31:19;3.40;76.20
2539;DHT22;1280;49.760;9.664;2022-12-10T07:33:48;3.40;76.20
2539;DHT22;1280;49.760;9.664;2022-12-10T07:36:16;3.40;76.30
2539;DHT22;1280;49.760;9.664;2022-12-10T07:38:44;3.40;76.40
2539;DHT22;1280;49.760;9.664;2022-12-10T07:41:13;3.50;76.40
2539;DHT22;1280;49.760;9.664;2022-12-10T07:43:43;3.50;76.40
2539;DHT22;1280;49.760;9.664;2022-12-10T07:46:14;3.50;76.40
2539;DHT22;1280;49.760;9.664;2022-12-10T07:48:43;3.50;76.30
2539;DHT22;1280;49.760;9.664;2022-12-10T07:51:12;3.50;76.40
2539;DHT22;1280;49.760;9.664;2022-12-10T07:53:41;3.50;76.40
2539;DHT22;1280;49.760;9.664;2022-12-10T07:56:10;3.50;76.40
2539;DHT22;1280;49.760;9.664;2022-12-10T07:58:41;3.50;76.50
2539;DHT22;1280;49.760;9.664;2022-12-10T08:01:12;3.50;76.50
2539;DHT22;1280;49.760;9.664;2022-12-10T08:03:41;3.50;76.60
2539;DHT22;1280;49.760;9.664;2022-12-10T08:06:10;3.50;76.70
2539;DHT22;1280;49.760;9.664;2022-12-10T08:08:41;3.60;76.70
2539;DHT22;1280;49.760;9.664;2022-12-10T08:11:10;3.60;76.60
2539;DHT22;1280;49.760;9.664;2022-12-10T08:13:39;3.50;76.60
2539;DHT22;1280;49.760;9.664;2022-12-10T08:16:12;3.60;76.60
2539;DHT22;1280;49.760;9.664;2022-12-10T08:18:41;3.50;76.60
2539;DHT22;1280;49.760;9.664;2022-12-10T08:21:11;3.50;76.70
2539;DHT22;1280;49.760;9.664;2022-12-10T08:23:39;3.50;76.70
2539;DHT22;1280;49.760;9.664;2022-12-10T08:26:10;3.50;76.70
2539;DHT22;1280;49.760;9.664;2022-12-10T08:28:39;3.50;76.70
2539;DHT22;1280;49.760;9.664;2022-12-10T08:31:08;3.50;76.80
2539;DHT22;1280;49.760;9.664;2022-12-10T08:33:40;3.50;76.80
2539;DHT22;1280;49.760;9.664;2022-12-10T08:36:10;3.60;76.90
2539;DHT22;1280;49.760;9.664;2022-12-10T08:38:40;3.60;76.90
2539;DHT22;1280;49.760;9.664;2022-12-10T08:41:10;3.60;76.90
2539;DHT22;1280;49.760;9.664;2022-12-10T08:43:39;3.60;77.00
2539;DHT22;1280;49.760;9.664;2022-12-10T08:46:08;3.60;77.00
2539;DHT22;1280;49.760;9.664;2022-12-10T08:48:40;3.60;77.00
2539;DHT22;1280;49.760;9.664;2022-12-10T08:51:09;3.70;77.00
2539;DHT22;1280;49.760;9.664;2022-12-10T08:53:38;3.70;77.00
2539;DHT22;1280;49.760;9.664;2022-12-10T08:56:06;3.70;77.00
2539;DHT22;1280;49.760;9.664;2022-12-10T08:58:35;3.70;77.00
2539;DHT22;1280;49.760;9.664;2022-12-10T09:01:06;3.70;77.10
2539;DHT22;1280;49.760;9.664;2022-12-10T09:03:34;3.70;77.10
2539;DHT22;1280;49.760;9.664;2022-12-10T09:06:06;3.70;77.20
2539;DHT22;1280;49.760;9.664;2022-12-10T09:08:34;3.70;77.20
2539;DHT22;1280;49.760;9.664;2022-12-10T09:11:07;3.80;77.30
2539;DHT22;1280;49.760;9.664;2022-12-10T09:13:35;3.80;77.20
2539;DHT22;1280;49.760;9.664;2022-12-10T09:16:03;3.80;77.20
2539;DHT22;1280;49.760;9.664;2022-12-10T09:18:32;3.80;77.20
2539;DHT22;1280;49.760;9.664;2022-12-10T09:21:00;3.80;77.20
2539;DHT22;1280;49.760;9.664;2022-12-10T09:23:32;3.80;77.20
2539;DHT22;1280;49.760;9.664;2022-12-10T09:26:01;3.80;77.30
2539;DHT22;1280;49.760;9.664;2022-12-10T09:28:29;3.80;77.30
2539;DHT22;1280;49.760;9.664;2022-12-10T09:30:58;3.80;77.30
2539;DHT22;1280;49.760;9.664;2022-12-10T09:33:33;3.80;77.30
2539;DHT22;1280;49.760;9.664;2022-12-10T09:36:02;3.80;77.30
2539;DHT22;1280;49.760;9.664;2022-12-10T09:38:31;3.80;77.40
2539;DHT22;1280;49.760;9.664;2022-12-10T09:41:02;3.80;77.40
2539;DHT22;1280;49.760;9.664;2022-12-10T09:43:41;3.80;77.40
2539;DHT22;1280;49.760;9.664;2022-12-10T09:46:19;3.80;77.50
2539;DHT22;1280;49.760;9.664;2022-12-10T09:49:02;3.90;77.60
2539;DHT22;1280;49.760;9.664;2022-12-10T09:51:35;3.90;77.70
2539;DHT22;1280;49.760;9.664;2022-12-10T09:54:16;4.00;77.80
2539;DHT22;1280;49.760;9.664;2022-12-10T09:56:48;4.10;77.90
2539;DHT22;1280;49.760;9.664;2022-12-10T09:59:20;4.10;77.90
2539;DHT22;1280;49.760;9.664;2022-12-10T10:01:57;4.20;77.90
2539;DHT22;1280;49.760;9.664;2022-12-10T10:04:26;4.20;78.00
2539;DHT22;1280;49.760;9.664;2022-12-10T10:06:54;4.30;77.90
2539;DHT22;1280;49.760;9.664;2022-12-10T10:09:23;4.30;77.80
2539;DHT22;1280;49.760;9.664;2022-12-10T10:11:53;4.30;77.70
2539;DHT22;1280;49.760;9.664;2022-12-10T10:14:25;4.30;77.90
2539;DHT22;1280;49.760;9.664;2022-12-10T10:16:56;4.30;77.90
2539;DHT22;1280;49.760;9.664;2022-12-10T10:19:29;4.30;77.90
2539;DHT22;1280;49.760;9.664;2022-12-10T10:22:00;4.30;78.00
2539;DHT22;1280;49.760;9.664;2022-12-10T10:24:33;4.30;77.90
2539;DHT22;1280;49.760;9.664;2022-12-10T10:27:11;4.30;78.00
2539;DHT22;1280;49.760;9.664;2022-12-10T10:29:40;4.30;77.90
2539;DHT22;1280;49.760;9.664;2022-12-10T10:32:20;4.30;77.90
2539;DHT22;1280;49.760;9.664;2022-12-10T10:34:53;4.30;77.80
2539;DHT22;1280;49.760;9.664;2022-12-10T10:37:23;4.30;77.70
2539;DHT22;1280;49.760;9.664;2022-12-10T10:39:54;4.30;77.80
2539;DHT22;1280;49.760;9.664;2022-12-10T10:42:34;4.30;77.70
2539;DHT22;1280;49.760;9.664;2022-12-10T10:45:04;4.20;77.80
2539;DHT22;1280;49.760;9.664;2022-12-10T10:47:34;4.20;77.90
2539;DHT22;1280;49.760;9.664;2022-12-10T10:50:04;4.20;77.90
2539;DHT22;1280;49.760;9.664;2022-12-10T10:52:36;4.30;77.90
2539;DHT22;1280;49.760;9.664;2022-12-10T10:55:05;4.30;78.10
2539;DHT22;1280;49.760;9.664;2022-12-10T10:57:36;4.40;78.10
2539;DHT22;1280;49.760;9.664;2022-12-10T11:00:17;4.40;78.10
2539;DHT22;1280;49.760;9.664;2022-12-10T11:02:46;4.40;78.00
2539;DHT22;1280;49.760;9.664;2022-12-10T11:05:19;4.40;77.90
2539;DHT22;1280;49.760;9.664;2022-12-10T11:07:49;4.40;77.90
2539;DHT22;1280;49.760;9.664;2022-12-10T11:10:25;4.40;78.00
2539;DHT22;1280;49.760;9.664;2022-12-10T11:12:56;4.40;78.00
2539;DHT22;1280;49.760;9.664;2022-12-10T11:15:35;4.50;78.00
2539;DHT22;1280;49.760;9.664;2022-12-10T11:18:24;4.50;78.00
2539;DHT22;1280;49.760;9.664;2022-12-10T11:21:01;4.50;78.00
2539;DHT22;1280;49.760;9.664;2022-12-10T11:23:31;4.50;78.10
2539;DHT22;1280;49.760;9.664;2022-12-10T11:26:16;4.50;78.10
2539;DHT22;1280;49.760;9.664;2022-12-10T11:28:54;4.60;78.10
2539;DHT22;1280;49.760;9.664;2022-12-10T11:31:37;4.60;78.10
2539;DHT22;1280;49.760;9.664;2022-12-10T11:34:15;4.60;78.10
2539;DHT22;1280;49.760;9.664;2022-12-10T11:36:53;4.70;78.10
2539;DHT22;1280;49.760;9.664;2022-12-10T11:39:34;4.70;78.10
2539;DHT22;1280;49.760;9.664;2022-12-10T11:42:09;4.70;78.10
2539;DHT22;1280;49.760;9.664;2022-12-10T11:44:46;4.70;78.20
2539;DHT22;1280;49.760;9.664;2022-12-10T11:47:30;4.80;78.10
2539;DHT22;1280;49.760;9.664;2022-12-10T11:50:13;4.80;78.10
2539;DHT22;1280;49.760;9.664;2022-12-10T11:52:54;4.80;78.00
2539;DHT22;1280;49.760;9.664;2022-12-10T11:55:32;4.80;77.90
2539;DHT22;1280;49.760;9.664;2022-12-10T11:58:20;4.70;78.00
2539;DHT22;1280;49.760;9.664;2022-12-10T12:01:01;4.70;78.00
2539;DHT22;1280;49.760;9.664;2022-12-10T12:03:54;4.70;78.00
2539;DHT22;1280;49.760;9.664;2022-12-10T12:06:43;4.80;78.00
2539;DHT22;1280;49.760;9.664;2022-12-10T12:09:23;4.80;78.00
2539;DHT22;1280;49.760;9.664;2022-12-10T12:12:03;4.80;78.00
2539;DHT22;1280;49.760;9.664;2022-12-10T12:14:39;4.80;77.90
2539;DHT22;1280;49.760;9.664;2022-12-10T12:17:13;4.80;77.80
2539;DHT22;1280;49.760;9.664;2022-12-10T12:19:46;4.70;77.80
2539;DHT22;1280;49.760;9.664;2022-12-10T12:22:16;4.70;77.70
2539;DHT22;1280;49.760;9.664;2022-12-10T12:24:49;4.70;77.70
2539;DHT22;1280;49.760;9.664;2022-12-10T12:27:24;4.60;77.70
2539;DHT22;1280;49.760;9.664;2022-12-10T12:30:03;4.60;77.60
2539;DHT22;1280;49.760;9.664;2022-12-10T12:32:40;4.50;77.70
2539;DHT22;1280;49.760;9.664;2022-12-10T12:35:14;4.50;77.80
2539;DHT22;1280;49.760;9.664;2022-12-10T12:37:48;4.50;77.80
2539;DHT22;1280;49.760;9.664;2022-12-10T12:40:25;4.50;77.80
2539;DHT22;1280;49.760;9.664;2022-12-10T12:42:58;4.50;77.90
2539;DHT22;1280;49.760;9.664;2022-12-10T12:45:33;4.50;77.90
2539;DHT22;1280;49.760;9.664;2022-12-10T12:48:10;4.50;77.80
2539;DHT22;1280;49.760;9.664;2022-12-10T12:50:44;4.50;77.80
2539;DHT22;1280;49.760;9.664;2022-12-10T12:53:15;4.50;77.70
2539;DHT22;1280;49.760;9.664;2022-12-10T12:55:49;4.40;77.60
2539;DHT22;1280;49.760;9.664;2022-12-10T12:58:25;4.40;77.60
2539;DHT22;1280;49.760;9.664;2022-12-10T13:00:57;4.30;77.60
2539;DHT22;1280;49.760;9.664;2022-12-10T13:03:35;4.30;77.60
2539;DHT22;1280;49.760;9.664;2022-12-10T13:06:16;4.20;77.70
2539;DHT22;1280;49.760;9.664;2022-12-10T13:08:47;4.20;77.80
2539;DHT22;1280;49.760;9.664;2022-12-10T13:11:18;4.20;77.80
2539;DHT22;1280;49.760;9.664;2022-12-10T13:14:29;4.20;77.80
2539;DHT22;1280;49.760;9.664;2022-12-10T13:17:08;4.20;77.80
2539;DHT22;1280;49.760;9.664;2022-12-10T13:19:40;4.20;77.90
2539;DHT22;1280;49.760;9.664;2022-12-10T13:22:11;4.20;77.80
2539;DHT22;1280;49.760;9.664;2022-12-10T13:27:32;4.10;77.90
2539;DHT22;1280;49.760;9.664;2022-12-10T13:30:05;4.10;78.00
2539;DHT22;1280;49.760;9.664;2022-12-10T13:32:54;4.20;77.80
2539;DHT22;1280;49.760;9.664;2022-12-10T13:35:31;4.20;77.90
2539;DHT22;1280;49.760;9.664;2022-12-10T13:38:04;4.10;77.80
2539;DHT22;1280;49.760;9.664;2022-12-10T13:40:43;4.10;77.70
2539;DHT22;1280;49.760;9.664;2022-12-10T13:43:41;4.10;77.80
2539;DHT22;1280;49.760;9.664;2022-12-10T13:46:54;4.00;77.90
2539;DHT22;1280;49.760;9.664;2022-12-10T13:49:25;4.00;78.00
2539;DHT22;1280;49.760;9.664;2022-12-10T13:52:01;4.00;78.00
2539;DHT22;1280;49.760;9.664;2022-12-10T14:00:33;4.00;78.00
2539;DHT22;1280;49.760;9.664;2022-12-10T14:03:26;4.00;78.10
2539;DHT22;1280;49.760;9.664;2022-12-10T14:06:10;3.90;78.10
2539;DHT22;1280;49.760;9.664;2022-12-10T14:08:57;3.90;78.20
2539;DHT22;1280;49.760;9.664;2022-12-10T14:11:30;3.80;78.10
2539;DHT22;1280;49.760;9.664;2022-12-10T14:14:05;3.80;78.20
2539;DHT22;1280;49.760;9.664;2022-12-10T14:16:35;3.80;78.30
2539;DHT22;1280;49.760;9.664;2022-12-10T14:19:05;3.80;78.40
2539;DHT22;1280;49.760;9.664;2022-12-10T14:21:35;3.80;78.50
2539;DHT22;1280;49.760;9.664;2022-12-10T14:24:25;3.80;78.50
2539;DHT22;1280;49.760;9.664;2022-12-10T14:26:57;3.80;78.60
2539;DHT22;1280;49.760;9.664;2022-12-10T14:29:26;3.80;78.60
2539;DHT22;1280;49.760;9.664;2022-12-10T14:31:55;3.80;78.70
2539;DHT22;1280;49.760;9.664;2022-12-10T14:34:26;3.80;78.70
2539;DHT22;1280;49.760;9.664;2022-12-10T14:36:56;3.80;78.80
2539;DHT22;1280;49.760;9.664;2022-12-10T14:39:28;3.90;78.80
2539;DHT22;1280;49.760;9.664;2022-12-10T14:41:58;3.90;78.80
2539;DHT22;1280;49.760;9.664;2022-12-10T14:44:27;3.90;78.80
2539;DHT22;1280;49.760;9.664;2022-12-10T14:47:04;3.90;78.90
2539;DHT22;1280;49.760;9.664;2022-12-10T14:49:38;3.90;78.90
2539;DHT22;1280;49.760;9.664;2022-12-10T14:52:12;3.90;78.90
2539;DHT22;1280;49.760;9.664;2022-12-10T14:54:42;3.90;78.90
2539;DHT22;1280;49.760;9.664;2022-12-10T14:57:15;3.90;78.90
2539;DHT22;1280;49.760;9.664;2022-12-10T14:59:48;3.90;79.00
2539;DHT22;1280;49.760;9.664;2022-12-10T15:02:22;3.90;78.90
2539;DHT22;1280;49.760;9.664;2022-12-10T15:04:52;3.80;78.90
2539;DHT22;1280;49.760;9.664;2022-12-10T15:07:23;3.80;79.00
2539;DHT22;1280;49.760;9.664;2022-12-10T15:09:54;3.80;79.00
2539;DHT22;1280;49.760;9.664;2022-12-10T15:12:29;3.80;79.20
2539;DHT22;1280;49.760;9.664;2022-12-10T15:15:02;3.80;79.20
2539;DHT22;1280;49.760;9.664;2022-12-10T15:17:38;3.80;79.30
2539;DHT22;1280;49.760;9.664;2022-12-10T15:20:21;3.80;79.40
2539;DHT22;1280;49.760;9.664;2022-12-10T15:22:50;3.90;79.50
2539;DHT22;1280;49.760;9.664;2022-12-10T15:25:28;3.90;79.50
2539;DHT22;1280;49.760;9.664;2022-12-10T15:27:59;4.00;79.50
2539;DHT22;1280;49.760;9.664;2022-12-10T15:30:36;4.00;79.40
2539;DHT22;1280;49.760;9.664;2022-12-10T15:33:30;4.00;79.50
2539;DHT22;1280;49.760;9.664;2022-12-10T15:35:59;4.10;79.60
2539;DHT22;1280;49.760;9.664;2022-12-10T15:38:28;4.10;79.50
2539;DHT22;1280;49.760;9.664;2022-12-10T15:40:59;4.10;79.40
2539;DHT22;1280;49.760;9.664;2022-12-10T15:43:29;4.10;79.50
2539;DHT22;1280;49.760;9.664;2022-12-10T15:45:58;4.10;79.60
2539;DHT22;1280;49.760;9.664;2022-12-10T15:48:28;4.10;79.60
2539;DHT22;1280;49.760;9.664;2022-12-10T15:50:57;4.10;79.60
2539;DHT22;1280;49.760;9.664;2022-12-10T15:53:27;4.10;79.60
2539;DHT22;1280;49.760;9.664;2022-12-10T15:56:02;4.20;79.50
2539;DHT22;1280;49.760;9.664;2022-12-10T15:58:31;4.20;79.50
2539;DHT22;1280;49.760;9.664;2022-12-10T16:00:59;4.20;79.50
2539;DHT22;1280;49.760;9.664;2022-12-10T16:03:28;4.10;79.60
2539;DHT22;1280;49.760;9.664;2022-12-10T16:05:57;4.20;79.60
2539;DHT22;1280;49.760;9.664;2022-12-10T16:08:26;4.20;79.60
2539;DHT22;1280;49.760;9.664;2022-12-10T16:10:59;4.20;79.60
2539;DHT22;1280;49.760;9.664;2022-12-10T16:13:31;4.20;79.50
2539;DHT22;1280;49.760;9.664;2022-12-10T16:16:03;4.20;79.60
2539;DHT22;1280;49.760;9.664;2022-12-10T16:18:32;4.20;79.50
2539;DHT22;1280;49.760;9.664;2022-12-10T16:21:03;4.20;79.40
2539;DHT22;1280;49.760;9.664;2022-12-10T16:23:32;4.20;79.40
2539;DHT22;1280;49.760;9.664;2022-12-10T16:26:00;4.20;79.40
2539;DHT22;1280;49.760;9.664;2022-12-10T16:28:30;4.20;79.40
2539;DHT22;1280;49.760;9.664;2022-12-10T16:30:59;4.20;79.40
2539;DHT22;1280;49.760;9.664;2022-12-10T16:33:28;4.20;79.30
2539;DHT22;1280;49.760;9.664;2022-12-10T16:35:56;4.10;79.20
2539;DHT22;1280;49.760;9.664;2022-12-10T16:38:24;4.10;79.30
2539;DHT22;1280;49.760;9.664;2022-12-10T16:40:53;4.10;79.40
2539;DHT22;1280;49.760;9.664;2022-12-10T16:43:24;4.10;79.30
2539;DHT22;1280;49.760;9.664;2022-12-10T16:45:54;4.10;79.30
2539;DHT22;1280;49.760;9.664;2022-12-10T16:48:23;4.10;79.20
2539;DHT22;1280;49.760;9.664;2022-12-10T16:50:52;4.10;79.20
2539;DHT22;1280;49.760;9.664;2022-12-10T16:53:30;4.10;79.20
2539;DHT22;1280;49.760;9.664;2022-12-10T16:56:02;4.10;79.10
2539;DHT22;1280;49.760;9.664;2022-12-10T16:58:31;4.10;79.10